Time;durP1;ratioP1;P1;durP2;ratioP2;P2;SDS_P1;SDS_P2;PMS_P1;PMS_P2;Temp;Humidity;BMP_temperature;BMP_pressure;BME280_temperature;BME280_humidity;BME280_pressure;Samples;Min_cycle;Max_cycle;Signal;HPM_P1;HPM_P2
2023/04/20 00:02:17;;;;;;;21.77;13.45;;;;;;;2.41;100.00;101425.00;4912631;29;20494;-71
2023/04/20 00:04:43;;;;;;;23.40;13.25;;;;;;;2.38;100.00;101419.03;4909410;29;20062;-71
2023/04/20 00:07:10;;;;;;;22.73;13.68;;;;;;;2.33;100.00;101421.94;4912288;29;20043;-71
2023/04/20 00:09:36;;;;;;;19.30;12.73;;;;;;;2.37;100.00;101419.97;4912727;29;20067;-71
2023/04/20 00:12:03;;;;;;;18.02;12.05;;;;;;;2.37;100.00;101422.63;4910420;29;20048;-71
2023/04/20 00:14:30;;;;;;;20.02;12.95;;;;;;;2.50;100.00;101426.25;4911992;29;20532;-71
2023/04/20 00:16:57;;;;;;;20.65;13.20;;;;;;;2.50;100.00;101428.06;4914234;29;20078;-73
2023/04/20 00:19:25;;;;;;;23.75;13.05;;;;;;;2.43;100.00;101427.56;4913163;29;20140;-71
2023/04/20 00:21:52;;;;;;;20.20;13.25;;;;;;;2.42;100.00;101423.22;4913961;29;20108;-72
2023/04/20 00:24:19;;;;;;;20.35;13.27;;;;;;;2.42;100.00;101421.41;4912693;29;20063;-72
2023/04/20 00:26:45;;;;;;;21.02;12.88;;;;;;;2.56;100.00;101411.81;4899608;29;20058;-71
2023/04/20 00:29:12;;;;;;;21.83;13.10;;;;;;;2.58;100.00;101417.84;4914452;29;20424;-71
2023/04/20 00:31:38;;;;;;;23.23;12.68;;;;;;;2.47;100.00;101422.94;4897100;29;20052;-71
2023/04/20 00:34:05;;;;;;;20.30;12.75;;;;;;;2.45;100.00;101417.75;4914093;29;20112;-72
2023/04/20 00:36:31;;;;;;;18.40;12.43;;;;;;;2.45;100.00;101416.91;4913020;29;20131;-72
2023/04/20 00:38:58;;;;;;;19.08;12.75;;;;;;;2.50;100.00;101420.09;4917219;29;20510;-72
2023/04/20 00:41:24;;;;;;;20.67;13.13;;;;;;;2.47;100.00;101417.63;4917072;29;20050;-71
2023/04/20 00:43:53;;;;;;;20.77;12.95;;;;;;;2.54;100.00;101408.38;4917731;29;20511;-73
2023/04/20 00:46:20;;;;;;;19.95;12.23;;;;;;;2.61;100.00;101412.38;4917158;29;20103;-73
2023/04/20 00:48:52;;;;;;;17.95;12.43;;;;;;;2.65;100.00;101414.75;4916803;29;20052;-73
2023/04/20 00:51:20;;;;;;;20.27;13.13;;;;;;;2.64;100.00;101409.53;4917235;29;20063;-73
2023/04/20 00:53:47;;;;;;;17.33;12.50;;;;;;;2.43;100.00;101409.88;4916983;29;20139;-71
2023/04/20 00:56:15;;;;;;;17.17;11.65;;;;;;;2.41;100.00;101405.63;4917174;29;20050;-72
2023/04/20 00:58:42;;;;;;;20.58;12.60;;;;;;;2.43;100.00;101401.94;4916279;29;20059;-73
2023/04/20 01:01:10;;;;;;;24.10;11.88;;;;;;;2.35;100.00;101401.53;4917263;29;20139;-73
2023/04/20 01:03:38;;;;;;;19.15;12.23;;;;;;;2.28;100.00;101402.84;4917178;29;20092;-72
2023/04/20 01:09:52;;;;;;;21.25;12.82;;;;;;;2.37;100.00;101396.13;4907876;29;20100;-73
2023/04/20 01:12:18;;;;;;;23.60;13.38;;;;;;;2.49;100.00;101399.88;4917275;29;20107;-72
2023/04/20 01:14:45;;;;;;;20.45;12.75;;;;;;;2.40;100.00;101401.25;4914449;29;20421;-71
2023/04/20 01:17:13;;;;;;;17.88;12.60;;;;;;;2.49;100.00;101403.38;4916670;29;20420;-72
2023/04/20 01:19:40;;;;;;;18.67;12.10;;;;;;;2.42;100.00;101394.94;4909660;29;20044;-72
2023/04/20 01:22:07;;;;;;;17.17;11.60;;;;;;;2.36;100.00;101397.09;4915419;29;20394;-73
2023/04/20 01:24:33;;;;;;;20.02;12.20;;;;;;;2.34;100.00;101409.56;4916137;29;20505;-73
2023/04/20 01:27:00;;;;;;;18.02;11.52;;;;;;;2.32;100.00;101393.78;4916910;29;20501;-73
2023/04/20 01:29:27;;;;;;;21.63;11.65;;;;;;;2.31;100.00;101394.72;4915590;29;20052;-73
2023/04/20 01:31:53;;;;;;;19.50;12.13;;;;;;;2.29;100.00;101404.53;4915593;29;20055;-73
2023/04/20 01:34:20;;;;;;;20.13;12.55;;;;;;;2.26;100.00;101396.78;4915804;29;20096;-73
2023/04/20 01:36:47;;;;;;;18.13;12.32;;;;;;;2.30;100.00;101394.78;4908611;29;20052;-72
2023/04/20 01:39:13;;;;;;;18.77;11.95;;;;;;;2.26;100.00;101399.41;4915595;29;20048;-73
2023/04/20 01:41:40;;;;;;;17.48;12.35;;;;;;;2.25;100.00;101387.13;4915896;29;20071;-74
2023/04/20 01:44:07;;;;;;;18.35;12.63;;;;;;;2.14;100.00;101394.84;4913996;29;20051;-72
2023/04/20 01:46:37;;;;;;;19.85;12.48;;;;;;;2.19;100.00;101395.44;4915641;29;20043;-74
2023/04/20 01:49:04;;;;;;;18.33;13.10;;;;;;;2.19;100.00;101393.63;4906711;29;20473;-72
2023/04/20 01:51:33;;;;;;;21.90;12.73;;;;;;;2.18;100.00;101384.00;4914799;29;20055;-73
2023/04/20 01:54:00;;;;;;;22.08;14.25;;;;;;;2.21;100.00;101393.56;4915937;29;20537;-72
2023/04/20 01:56:27;;;;;;;21.42;13.57;;;;;;;2.19;100.00;101387.47;4915210;29;20052;-71
2023/04/20 01:58:54;;;;;;;22.73;13.50;;;;;;;2.19;100.00;101393.63;4915524;29;20056;-72
2023/04/20 02:01:20;;;;;;;25.65;14.57;;;;;;;2.21;100.00;101390.06;4914642;29;20063;-72
2023/04/20 02:03:47;;;;;;;26.20;15.18;;;;;;;2.27;100.00;101393.19;4915479;29;20052;-74
2023/04/20 02:06:15;;;;;;;24.55;13.93;;;;;;;2.29;100.00;101393.09;4915439;29;20131;-72
2023/04/20 02:08:42;;;;;;;24.35;15.52;;;;;;;2.30;100.00;101392.16;4911471;29;20052;-73
2023/04/20 02:11:08;;;;;;;24.73;14.55;;;;;;;2.36;100.00;101395.28;4914633;29;20047;-73
2023/04/20 02:13:35;;;;;;;21.27;13.95;;;;;;;2.31;100.00;101392.06;4915644;29;20052;-71
2023/04/20 02:16:01;;;;;;;24.40;14.80;;;;;;;2.35;100.00;101395.41;4898255;29;20123;-72
2023/04/20 02:18:29;;;;;;;22.75;14.50;;;;;;;2.29;100.00;101399.25;4913203;29;20052;-72
2023/04/20 02:20:55;;;;;;;21.05;13.38;;;;;;;2.37;100.00;101394.38;4914945;29;20108;-71
2023/04/20 02:23:22;;;;;;;43.72;16.40;;;;;;;2.37;100.00;101397.00;4914516;29;20050;-72
2023/04/20 02:25:48;;;;;;;20.75;14.30;;;;;;;2.34;100.00;101399.84;4915043;29;20072;-73
2023/04/20 02:28:15;;;;;;;21.60;14.57;;;;;;;2.42;100.00;101405.53;4913335;29;20064;-73
2023/04/20 02:30:42;;;;;;;21.48;14.13;;;;;;;2.42;100.00;101402.88;4913662;29;20378;-73
2023/04/20 02:33:08;;;;;;;28.05;13.90;;;;;;;2.43;100.00;101401.94;4914824;29;20416;-72
2023/04/20 02:35:35;;;;;;;22.77;14.20;;;;;;;2.46;100.00;101400.06;4912255;29;20068;-72
2023/04/20 02:38:01;;;;;;;22.58;15.13;;;;;;;2.51;100.00;101397.97;4913812;29;20052;-74
2023/04/20 02:40:28;;;;;;;20.08;13.82;;;;;;;2.51;100.00;101404.13;4914609;29;20048;-73
2023/04/20 02:42:55;;;;;;;22.73;15.20;;;;;;;2.51;100.00;101398.84;4913995;29;20058;-72
2023/04/20 02:45:21;;;;;;;20.52;14.57;;;;;;;2.49;100.00;101395.41;4914614;29;20489;-72
2023/04/20 02:47:47;;;;;;;27.17;15.50;;;;;;;2.48;100.00;101404.31;4913437;29;20501;-72
2023/04/20 02:50:14;;;;;;;25.92;14.88;;;;;;;2.53;100.00;101396.94;4914307;29;20047;-72
2023/04/20 02:52:41;;;;;;;25.05;16.58;;;;;;;2.49;100.00;101402.53;4893222;29;20083;-73
2023/04/20 02:55:08;;;;;;;24.80;17.33;;;;;;;2.44;100.00;101394.81;4888814;29;20045;-72
2023/04/20 02:57:35;;;;;;;25.40;16.70;;;;;;;2.50;100.00;101404.22;4895342;29;20071;-71
2023/04/20 03:00:01;;;;;;;26.65;17.95;;;;;;;2.49;100.00;101392.78;4894724;29;20091;-73
2023/04/20 03:02:28;;;;;;;27.73;17.85;;;;;;;2.40;100.00;101401.25;4890808;29;20049;-72
2023/04/20 03:04:55;;;;;;;28.52;17.38;;;;;;;2.51;100.00;101409.44;4894611;29;20509;-74
2023/04/20 03:07:21;;;;;;;26.35;18.48;;;;;;;2.51;100.00;101400.63;4895179;29;20059;-73
2023/04/20 03:09:48;;;;;;;30.52;18.67;;;;;;;2.57;100.00;101400.25;4895091;29;20049;-72
2023/04/20 03:12:14;;;;;;;28.23;19.67;;;;;;;2.56;100.00;101396.75;4895550;29;20044;-73
2023/04/20 03:14:41;;;;;;;31.20;18.63;;;;;;;2.50;100.00;101398.91;4894907;29;20057;-73
2023/04/20 03:17:07;;;;;;;30.35;19.60;;;;;;;2.55;100.00;101392.41;4895988;29;20129;-72
2023/04/20 03:19:35;;;;;;;26.40;18.38;;;;;;;2.55;100.00;101395.06;4894410;29;20064;-73
2023/04/20 03:22:01;;;;;;;30.33;20.52;;;;;;;2.54;100.00;101395.97;4894881;29;20059;-73
2023/04/20 03:24:27;;;;;;;26.45;18.38;;;;;;;2.53;100.00;101396.94;4894319;29;20049;-72
2023/04/20 03:26:54;;;;;;;29.23;19.13;;;;;;;2.56;100.00;101403.84;4894239;29;20507;-72
2023/04/20 03:29:21;;;;;;;33.50;19.10;;;;;;;2.46;100.00;101402.69;4894839;29;20048;-72
2023/04/20 03:31:47;;;;;;;30.13;20.27;;;;;;;2.50;100.00;101407.72;4894165;29;20049;-73
2023/04/20 03:34:14;;;;;;;30.20;19.35;;;;;;;2.50;100.00;101412.16;4895071;29;20048;-73
2023/04/20 03:36:40;;;;;;;29.70;19.08;;;;;;;2.51;100.00;101409.44;4895686;29;20059;-73
2023/04/20 03:39:07;;;;;;;28.40;19.23;;;;;;;2.55;100.00;101410.94;4894919;29;20079;-72
2023/04/20 03:41:33;;;;;;;29.83;19.00;;;;;;;2.45;100.00;101412.44;4893881;29;20428;-72
2023/04/20 03:44:00;;;;;;;29.63;20.55;;;;;;;2.56;100.00;101422.41;4894152;29;20136;-72
2023/04/20 03:46:27;;;;;;;30.92;19.70;;;;;;;2.60;100.00;101418.63;4894271;29;20053;-73
2023/04/20 03:48:54;;;;;;;31.63;21.92;;;;;;;2.57;100.00;101409.03;4890783;29;20083;-72
2023/04/20 03:51:20;;;;;;;31.10;20.80;;;;;;;2.48;100.00;101414.03;4901689;29;20132;-72
2023/04/20 03:53:47;;;;;;;28.13;20.02;;;;;;;2.48;100.00;101419.34;4913362;29;20135;-73
2023/04/20 03:56:13;;;;;;;33.67;21.25;;;;;;;2.56;100.00;101401.22;4912535;29;20493;-72
2023/04/20 03:58:39;;;;;;;34.25;20.98;;;;;;;2.55;100.00;101408.31;4909995;29;20135;-74
2023/04/20 04:01:09;;;;;;;31.88;19.58;;;;;;;2.46;100.00;101400.91;4887122;29;20048;-73
2023/04/20 04:03:36;;;;;;;35.10;22.58;;;;;;;2.51;100.00;101405.91;4912688;29;20568;-73
2023/04/20 04:06:03;;;;;;;33.13;22.17;;;;;;;2.50;100.00;101406.88;4911957;29;20044;-73
2023/04/20 04:08:31;;;;;;;32.72;21.70;;;;;;;2.52;100.00;101403.19;4912961;29;20052;-74
2023/04/20 04:10:59;;;;;;;32.75;22.38;;;;;;;2.55;100.00;101410.09;4913334;29;20074;-73
2023/04/20 04:13:25;;;;;;;34.40;22.98;;;;;;;2.57;100.00;101416.16;4912639;29;20169;-73
2023/04/20 04:15:52;;;;;;;33.63;20.88;;;;;;;2.62;100.00;101411.44;4912970;29;20051;-74
2023/04/20 04:18:20;;;;;;;33.75;21.40;;;;;;;2.54;100.00;101418.97;4912543;29;20058;-74
2023/04/20 04:20:47;;;;;;;35.88;24.00;;;;;;;2.59;100.00;101424.88;4905962;29;20051;-74
2023/04/20 04:23:14;;;;;;;33.40;21.95;;;;;;;2.51;100.00;101425.34;4896242;29;20537;-72
2023/04/20 04:25:40;;;;;;;31.77;21.98;;;;;;;2.46;100.00;101434.47;4913106;29;20135;-73
2023/04/20 04:28:07;;;;;;;33.38;22.80;;;;;;;2.57;100.00;101424.94;4913105;29;20059;-73
2023/04/20 04:30:34;;;;;;;37.20;22.13;;;;;;;2.66;100.00;101429.69;4906129;29;20130;-72
2023/04/20 04:33:03;;;;;;;37.95;22.77;;;;;;;2.63;100.00;101431.69;4913196;29;20052;-72
2023/04/20 04:35:32;;;;;;;36.75;23.42;;;;;;;2.73;100.00;101432.84;4912255;29;20088;-73
2023/04/20 04:37:58;;;;;;;38.58;23.08;;;;;;;2.77;100.00;101433.50;4912750;29;20052;-73
2023/04/20 04:40:25;;;;;;;36.03;23.00;;;;;;;2.85;100.00;101429.44;4912536;29;20131;-73
2023/04/20 04:42:51;;;;;;;35.95;23.15;;;;;;;2.83;100.00;101431.34;4902946;29;20048;-72
2023/04/20 04:45:18;;;;;;;34.45;21.88;;;;;;;2.78;100.00;101436.06;4912242;29;20044;-73
2023/04/20 04:47:45;;;;;;;38.10;22.42;;;;;;;2.77;100.00;101434.34;4912457;29;20080;-71
2023/04/20 04:50:11;;;;;;;31.08;21.15;;;;;;;2.79;100.00;101436.91;4912922;29;20135;-74
2023/04/20 04:52:38;;;;;;;39.88;24.17;;;;;;;2.84;100.00;101450.75;4912218;29;20070;-73
2023/04/20 04:55:08;;;;;;;34.08;21.55;;;;;;;2.78;100.00;101457.25;4911173;29;20055;-73
2023/04/20 04:57:35;;;;;;;33.40;21.35;;;;;;;2.81;100.00;101461.53;4912580;29;20052;-72
2023/04/20 05:00:03;;;;;;;38.35;20.83;;;;;;;2.91;100.00;101455.56;4912816;29;20132;-73
2023/04/20 05:02:30;;;;;;;32.35;21.23;;;;;;;2.88;100.00;101455.75;4912388;29;20127;-73
2023/04/20 05:04:57;;;;;;;35.40;21.40;;;;;;;2.87;100.00;101432.00;4912398;29;20798;-73
2023/04/20 05:07:24;;;;;;;33.72;22.05;;;;;;;2.95;100.00;101431.53;4912170;29;20421;-73
2023/04/20 05:09:50;;;;;;;33.58;21.92;;;;;;;3.01;100.00;101445.28;4912882;29;20369;-71
2023/04/20 05:12:18;;;;;;;36.47;22.58;;;;;;;3.00;100.00;101443.56;4912265;29;20055;-72
2023/04/20 05:14:44;;;;;;;39.28;22.75;;;;;;;3.02;100.00;101449.63;4912277;29;20501;-71
2023/04/20 05:17:11;;;;;;;35.20;21.55;;;;;;;3.05;100.00;101456.53;4911648;29;20493;-74
2023/04/20 05:19:37;;;;;;;34.53;20.98;;;;;;;3.08;100.00;101462.50;4912343;29;20048;-72
2023/04/20 05:22:04;;;;;;;34.15;21.92;;;;;;;2.97;100.00;101461.47;4911972;29;20062;-73
2023/04/20 05:24:30;;;;;;;35.53;21.55;;;;;;;2.95;100.00;101460.69;4912408;29;20052;-72
2023/04/20 05:26:57;;;;;;;40.78;22.25;;;;;;;2.96;100.00;101459.72;4916032;29;20421;-74
2023/04/20 05:29:24;;;;;;;34.35;21.85;;;;;;;2.92;100.00;101461.72;4915103;29;20048;-73
2023/04/20 05:31:50;;;;;;;38.28;21.60;;;;;;;2.95;100.00;101463.34;4916040;29;20052;-74
2023/04/20 05:34:17;;;;;;;36.72;21.88;;;;;;;3.05;100.00;101460.03;4916052;29;20111;-74
2023/04/20 05:36:43;;;;;;;37.78;22.33;;;;;;;3.13;100.00;101471.03;4914198;29;20517;-74
2023/04/20 05:39:10;;;;;;;35.65;22.88;;;;;;;3.15;100.00;101462.97;4898535;29;20051;-72
2023/04/20 05:41:37;;;;;;;35.30;23.10;;;;;;;3.11;100.00;101480.03;4915020;29;20505;-74
2023/04/20 05:44:04;;;;;;;38.95;23.20;;;;;;;3.07;100.00;101470.56;4915012;29;20059;-74
2023/04/20 05:46:30;;;;;;;35.15;22.00;;;;;;;3.18;100.00;101478.72;4915379;29;20047;-74
2023/04/20 05:48:57;;;;;;;34.00;21.27;;;;;;;3.29;100.00;101476.25;4915302;29;20489;-73
2023/04/20 05:51:27;;;;;;;31.17;20.83;;;;;;;3.22;100.00;101480.22;4914776;29;20044;-74
2023/04/20 05:53:54;;;;;;;35.58;21.58;;;;;;;3.36;100.00;101477.56;4915097;29;20075;-75
2023/04/20 05:56:22;;;;;;;34.72;21.80;;;;;;;3.37;100.00;101484.56;4915595;29;20056;-74
2023/04/20 05:58:48;;;;;;;35.30;22.23;;;;;;;3.32;100.00;101481.38;4915487;29;20048;-73
2023/04/20 06:01:15;;;;;;;36.28;22.50;;;;;;;3.27;100.00;101487.88;4914140;29;20083;-74
2023/04/20 06:03:42;;;;;;;38.85;23.92;;;;;;;3.26;100.00;101487.03;4914875;29;20159;-74
2023/04/20 06:06:09;;;;;;;39.35;24.33;;;;;;;3.24;100.00;101490.72;4915563;29;20055;-73
2023/04/20 06:08:35;;;;;;;38.70;24.98;;;;;;;3.23;100.00;101489.88;4914234;29;20188;-73
2023/04/20 06:11:03;;;;;;;38.13;22.90;;;;;;;3.18;100.00;101494.63;4914254;29;20058;-73
2023/04/20 06:13:29;;;;;;;41.38;24.10;;;;;;;3.08;100.00;101496.97;4914943;29;20058;-73
2023/04/20 06:15:56;;;;;;;37.78;23.70;;;;;;;3.14;100.00;101495.75;4914483;29;20040;-73
2023/04/20 06:18:22;;;;;;;36.40;23.40;;;;;;;3.18;100.00;101494.63;4913963;29;20060;-74
2023/04/20 06:20:49;;;;;;;42.53;23.63;;;;;;;3.32;100.00;101501.72;4915281;29;20130;-72
2023/04/20 06:23:16;;;;;;;40.00;23.35;;;;;;;3.56;100.00;101489.59;4914904;29;20044;-72
2023/04/20 06:25:42;;;;;;;38.65;23.17;;;;;;;3.64;100.00;101505.03;4898050;29;20068;-72
2023/04/20 06:28:09;;;;;;;39.35;23.58;;;;;;;3.46;100.00;101507.03;4914743;29;20151;-73
2023/04/20 06:30:36;;;;;;;36.08;22.77;;;;;;;3.33;100.00;101511.38;4894043;29;20060;-73
2023/04/20 06:33:03;;;;;;;36.80;22.67;;;;;;;3.62;100.00;101506.94;4913252;29;20054;-73
2023/04/20 06:35:29;;;;;;;35.97;21.90;;;;;;;3.64;100.00;101499.72;4914669;29;20409;-73
2023/04/20 06:37:56;;;;;;;37.50;21.85;;;;;;;3.58;100.00;101511.56;4864224;29;20416;-73
2023/04/20 06:40:27;;;;;;;35.38;22.35;;;;;;;3.52;100.00;101513.78;4914900;29;20048;-73
2023/04/20 06:42:53;;;;;;;35.13;23.05;;;;;;;3.46;100.00;101514.16;4914609;29;20138;-73
2023/04/20 06:45:20;;;;;;;34.90;22.75;;;;;;;3.57;100.00;101512.53;4879792;29;20053;-73
2023/04/20 06:47:47;;;;;;;40.55;23.85;;;;;;;3.67;100.00;101518.13;4877235;29;20446;-73
2023/04/20 06:50:14;;;;;;;42.28;22.77;;;;;;;3.53;100.00;101505.72;4876863;29;20045;-73
2023/04/20 06:52:41;;;;;;;36.55;22.00;;;;;;;3.29;100.00;101504.56;4875986;29;20136;-73
2023/04/20 06:55:09;;;;;;;40.78;22.05;;;;;;;3.33;100.00;101504.28;4876660;29;20045;-73
2023/04/20 06:57:37;;;;;;;36.88;22.23;;;;;;;3.39;100.00;101503.06;4875383;29;20124;-73
2023/04/20 07:00:09;;;;;;;36.00;22.38;;;;;;;3.44;100.00;101510.72;4875865;29;20049;-73
2023/04/20 07:02:47;;;;;;;40.60;22.38;;;;;;;3.42;100.00;101512.63;4899379;29;20139;-72
2023/04/20 07:05:15;;;;;;;37.58;22.65;;;;;;;3.49;100.00;101514.81;4913407;29;20139;-73
2023/04/20 07:07:42;;;;;;;38.85;22.48;;;;;;;3.50;100.00;101507.69;4912811;29;20128;-73
2023/04/20 07:10:10;;;;;;;37.33;22.77;;;;;;;3.54;100.00;101510.06;4914069;29;20048;-73
2023/04/20 07:12:38;;;;;;;36.15;21.77;;;;;;;3.74;100.00;101516.78;4913319;29;20465;-73
2023/04/20 07:15:08;;;;;;;34.95;21.83;;;;;;;3.72;100.00;101520.47;4913577;29;20052;-73
2023/04/20 07:17:35;;;;;;;37.88;20.27;;;;;;;3.74;100.00;101513.28;4912487;29;20052;-73
2023/04/20 07:20:06;;;;;;;32.47;20.77;;;;;;;3.90;100.00;101521.09;4913623;29;20136;-74
2023/04/20 07:22:33;;;;;;;34.92;21.02;;;;;;;4.03;100.00;101535.31;4913290;29;20075;-74
2023/04/20 07:25:01;;;;;;;38.92;21.63;;;;;;;4.08;100.00;101522.59;4913105;29;20052;-74
2023/04/20 07:27:29;;;;;;;36.55;22.27;;;;;;;4.19;100.00;101535.19;4907507;29;20077;-74
2023/04/20 07:29:57;;;;;;;36.83;21.55;;;;;;;3.98;100.00;101535.59;4913835;29;20114;-73
2023/04/20 07:32:24;;;;;;;33.33;21.17;;;;;;;4.17;100.00;101543.25;4913630;29;20055;-73
2023/04/20 07:34:51;;;;;;;37.70;20.90;;;;;;;4.27;100.00;101546.16;4914649;29;20490;-74
2023/04/20 07:37:17;;;;;;;34.78;19.60;;;;;;;4.52;100.00;101548.97;4908407;29;20044;-73
2023/04/20 07:39:44;;;;;;;34.45;20.58;;;;;;;4.49;100.00;101537.69;4912898;29;20059;-74
2023/04/20 07:42:10;;;;;;;34.63;20.08;;;;;;;4.66;100.00;101539.22;4909298;29;20175;-73
2023/04/20 07:44:37;;;;;;;31.98;19.90;;;;;;;4.68;100.00;101546.16;4904313;29;20144;-73
2023/04/20 07:47:03;;;;;;;29.48;19.38;;;;;;;4.84;100.00;101540.66;4911991;29;20046;-73
2023/04/20 07:49:30;;;;;;;33.15;19.30;;;;;;;4.76;100.00;101543.84;4912348;29;20067;-73
2023/04/20 07:51:57;;;;;;;29.50;18.88;;;;;;;5.00;100.00;101551.94;4912581;29;20068;-73
2023/04/20 07:54:40;;;;;;;30.42;19.00;;;;;;;4.98;100.00;101545.06;4912208;29;20056;-73
2023/04/20 07:57:08;;;;;;;32.60;19.85;;;;;;;5.03;100.00;101545.59;4913291;29;20070;-73
2023/04/20 07:59:35;;;;;;;31.02;19.38;;;;;;;4.74;100.00;101551.06;4913025;29;20523;-73
2023/04/20 08:02:02;;;;;;;29.42;18.17;;;;;;;4.73;100.00;101565.31;4913654;29;20048;-73
2023/04/20 08:04:29;;;;;;;29.15;19.02;;;;;;;4.90;100.00;101558.88;4912839;29;20044;-74
2023/04/20 08:06:56;;;;;;;27.58;18.08;;;;;;;4.91;100.00;101554.41;4912179;29;20131;-74
2023/04/20 08:09:24;;;;;;;28.73;19.08;;;;;;;4.75;100.00;101559.88;4914069;29;20044;-74
2023/04/20 08:11:51;;;;;;;28.55;19.48;;;;;;;4.74;100.00;101552.88;4914233;29;20054;-74
2023/04/20 08:14:18;;;;;;;30.52;19.27;;;;;;;4.74;100.00;101543.09;4913710;29;20044;-74
2023/04/20 08:16:45;;;;;;;26.27;17.88;;;;;;;4.79;100.00;101540.09;4912153;29;20048;-74
2023/04/20 08:19:11;;;;;;;27.73;18.92;;;;;;;5.01;100.00;101544.84;4913527;29;20055;-73
2023/04/20 08:21:39;;;;;;;31.23;18.00;;;;;;;5.67;100.00;101548.28;4913469;29;20052;-74
2023/04/20 08:24:07;;;;;;;25.88;17.10;;;;;;;5.86;100.00;101543.34;4912960;29;20104;-73
2023/04/20 08:26:34;;;;;;;29.05;17.45;;;;;;;5.70;100.00;101546.25;4913153;29;20603;-73
2023/04/20 08:29:02;;;;;;;25.23;17.52;;;;;;;5.80;100.00;101558.88;4912909;29;20051;-73
2023/04/20 08:31:28;;;;;;;28.30;17.23;;;;;;;5.94;100.00;101556.09;4912334;29;20048;-73
2023/04/20 08:33:55;;;;;;;23.33;16.17;;;;;;;5.65;100.00;101561.69;4912702;29;20051;-73
2023/04/20 08:36:22;;;;;;;23.98;16.17;;;;;;;5.20;100.00;101558.59;4912706;29;20062;-73
2023/04/20 08:39:04;;;;;;;24.40;16.23;;;;;;;5.16;100.00;101562.41;4912119;29;20115;-74
2023/04/20 08:41:31;;;;;;;23.20;16.55;;;;;;;5.05;100.00;101563.16;4912534;29;20044;-74
2023/04/20 08:43:58;;;;;;;26.77;17.50;;;;;;;4.97;100.00;101561.94;4912904;29;20048;-73
2023/04/20 08:46:24;;;;;;;23.60;16.17;;;;;;;4.76;100.00;101570.44;4911459;29;20072;-74
2023/04/20 08:48:53;;;;;;;24.05;16.83;;;;;;;4.75;100.00;101567.84;4913904;29;20056;-74
2023/04/20 08:51:21;;;;;;;21.02;14.95;;;;;;;4.57;100.00;101567.28;4913098;29;20044;-74
2023/04/20 08:53:47;;;;;;;23.98;14.27;;;;;;;4.46;100.00;101569.78;4912295;29;20127;-74
2023/04/20 08:56:14;;;;;;;24.80;15.75;;;;;;;4.58;100.00;101563.66;4904040;29;20056;-74
2023/04/20 08:58:43;;;;;;;26.77;17.40;;;;;;;4.54;100.00;101572.78;4912685;29;20402;-74
2023/04/20 09:01:10;;;;;;;30.92;20.25;;;;;;;4.42;100.00;101563.81;4916066;29;20127;-74
2023/04/20 09:03:43;;;;;;;32.33;19.85;;;;;;;4.36;100.00;101561.50;4914280;29;20458;-73
2023/04/20 09:06:15;;;;;;;33.45;21.63;;;;;;;4.02;100.00;101560.16;4914878;29;20477;-74
2023/04/20 09:08:43;;;;;;;33.33;23.02;;;;;;;4.07;100.00;101558.06;4914119;29;20144;-74
2023/04/20 09:11:24;;;;;;;37.85;23.50;;;;;;;4.12;100.00;101561.28;4915224;29;20389;-75
2023/04/20 09:14:09;;;;;;;38.60;24.25;;;;;;;4.05;100.00;101559.97;4905830;29;20048;-74
2023/04/20 09:16:38;;;;;;;38.33;25.17;;;;;;;4.07;100.00;101553.63;4915175;29;20066;-74
2023/04/20 09:19:05;;;;;;;36.83;23.90;;;;;;;4.03;100.00;101556.53;4915580;29;20048;-74
2023/04/20 09:21:34;;;;;;;41.42;25.60;;;;;;;3.93;100.00;101555.41;4915661;29;20481;-74
2023/04/20 09:24:08;;;;;;;41.38;25.70;;;;;;;4.02;100.00;101562.81;4915602;29;20044;-74
2023/04/20 09:26:35;;;;;;;40.50;25.42;;;;;;;4.04;100.00;101555.63;4916236;29;20134;-74
2023/04/20 09:29:02;;;;;;;41.50;25.38;;;;;;;4.08;100.00;101557.13;4915647;29;20051;-74
2023/04/20 09:31:29;;;;;;;39.83;24.20;;;;;;;4.12;100.00;101555.13;4915184;29;20067;-74
2023/04/20 09:34:02;;;;;;;38.58;24.83;;;;;;;4.06;100.00;101551.03;4916719;29;20462;-74
2023/04/20 09:36:35;;;;;;;38.55;25.42;;;;;;;4.04;100.00;101555.63;4915473;29;20050;-74
2023/04/20 09:39:06;;;;;;;38.45;25.48;;;;;;;4.17;100.00;101553.88;4915638;29;20044;-74
2023/04/20 09:41:34;;;;;;;37.00;25.33;;;;;;;4.37;100.00;101544.63;4915616;29;20398;-74
2023/04/20 09:44:01;;;;;;;41.85;24.67;;;;;;;4.33;100.00;101538.66;4912836;29;20052;-74
2023/04/20 09:46:32;;;;;;;35.63;23.77;;;;;;;4.40;100.00;101540.94;4915912;29;20055;-74
2023/04/20 09:49:03;;;;;;;39.78;24.95;;;;;;;4.52;100.00;101548.97;4915719;29;20052;-74
2023/04/20 09:51:32;;;;;;;38.42;23.67;;;;;;;4.72;100.00;101544.13;4914663;29;20040;-74
2023/04/20 09:54:01;;;;;;;37.05;23.10;;;;;;;5.05;100.00;101541.88;4915273;29;20048;-74
2023/04/20 09:56:29;;;;;;;31.55;20.38;;;;;;;5.15;100.00;101542.09;4915036;29;20409;-74
2023/04/20 09:58:57;;;;;;;33.83;18.92;;;;;;;5.40;100.00;101535.94;4905387;29;20135;-74
2023/04/20 10:01:25;;;;;;;32.45;19.08;;;;;;;5.70;100.00;101529.44;4915560;29;20421;-74
2023/04/20 10:03:56;;;;;;;28.75;19.23;;;;;;;6.23;100.00;101533.53;4916217;29;20044;-75
2023/04/20 10:06:25;;;;;;;26.05;18.55;;;;;;;6.48;100.00;101534.44;4915708;29;20048;-75
2023/04/20 10:08:52;;;;;;;24.27;16.92;;;;;;;6.26;100.00;101543.16;4916142;29;20131;-74
2023/04/20 10:11:39;;;;;;;26.30;17.63;;;;;;;6.44;100.00;101540.97;4915401;29;20211;-74
2023/04/20 10:14:23;;;;;;;22.83;17.40;;;;;;;6.33;100.00;101536.41;4915721;29;20107;-75
2023/04/20 10:17:08;;;;;;;26.05;16.50;;;;;;;6.33;100.00;101546.22;4916207;29;20047;-74
2023/04/20 10:19:44;;;;;;;20.17;15.07;;;;;;;6.32;100.00;101534.72;4915998;29;20056;-74
2023/04/20 10:22:23;;;;;;;22.00;15.57;;;;;;;6.43;100.00;101540.13;4906418;29;20486;-73
2023/04/20 10:24:50;;;;;;;26.83;16.88;;;;;;;6.47;100.00;101535.41;4915715;29;20055;-74
2023/04/20 10:27:18;;;;;;;25.27;16.15;;;;;;;6.42;100.00;101545.53;4915825;29;20072;-74
2023/04/20 10:29:45;;;;;;;47.28;21.30;;;;;;;6.11;100.00;101547.75;4914825;29;20424;-74
2023/04/20 10:32:25;;;;;;;23.25;15.52;;;;;;;6.31;100.00;101549.00;4915292;29;20099;-74
2023/04/20 10:35:06;;;;;;;22.92;16.33;;;;;;;6.25;100.00;101538.75;4915662;29;20076;-74
2023/04/20 10:37:33;;;;;;;21.27;14.68;;;;;;;6.32;100.00;101541.84;4915075;29;20050;-74
2023/04/20 10:40:00;;;;;;;24.25;15.10;;;;;;;6.23;100.00;101541.53;4916036;29;20054;-75
2023/04/20 10:42:28;;;;;;;28.40;16.95;;;;;;;6.27;100.00;101530.69;4916231;29;20044;-75
2023/04/20 10:44:55;;;;;;;22.08;15.40;;;;;;;6.43;100.00;101528.59;4899189;29;20374;-74
2023/04/20 10:47:30;;;;;;;22.25;15.60;;;;;;;6.84;100.00;101529.97;4915337;29;20125;-75
2023/04/20 10:50:06;;;;;;;19.70;13.75;;;;;;;6.78;100.00;101515.28;4905035;29;20474;-75
2023/04/20 10:52:35;;;;;;;19.30;13.88;;;;;;;6.77;100.00;101513.56;4890505;29;20052;-74
2023/04/20 10:55:04;;;;;;;26.52;14.13;;;;;;;7.32;100.00;101503.16;4910267;29;20055;-75
2023/04/20 10:57:30;;;;;;;21.40;13.85;;;;;;;7.70;100.00;101496.59;4896050;29;20048;-75
2023/04/20 10:59:57;;;;;;;17.38;12.85;;;;;;;7.48;100.00;101510.81;4896893;29;20417;-74
2023/04/20 11:02:23;;;;;;;19.35;13.65;;;;;;;7.67;100.00;101500.34;4893935;29;20055;-74
2023/04/20 11:04:51;;;;;;;20.60;13.02;;;;;;;7.85;100.00;101500.78;4895281;29;20057;-74
2023/04/20 11:07:19;;;;;;;18.83;13.32;;;;;;;7.59;100.00;101505.47;4894781;29;20045;-75
2023/04/20 11:09:53;;;;;;;19.75;14.48;;;;;;;7.36;100.00;101501.94;4894860;29;20060;-75
2023/04/20 11:12:20;;;;;;;20.88;13.90;;;;;;;7.58;100.00;101504.63;4901019;29;20536;-75
2023/04/20 11:14:54;;;;;;;20.40;13.60;;;;;;;7.76;100.00;101512.16;4893413;29;20433;-75
2023/04/20 11:17:37;;;;;;;23.88;14.98;;;;;;;7.94;100.00;101513.38;4894510;29;20048;-75